createdAt,value
2019-02-10T00:00:45.075Z,100.00
2019-02-10T00:03:13.720Z,100.00
2019-02-10T00:05:42.644Z,100.00
2019-02-10T00:08:11.287Z,100.00
2019-02-10T00:10:39.777Z,100.00
2019-02-10T00:13:26.838Z,100.00
2019-02-10T00:15:56.674Z,100.00
2019-02-10T00:18:25.253Z,100.00
2019-02-10T00:20:54.107Z,100.00
2019-02-10T00:23:22.747Z,100.00
2019-02-10T00:25:51.258Z,100.00
2019-02-10T00:28:19.797Z,100.00
2019-02-10T00:30:48.429Z,100.00
2019-02-10T00:33:17.080Z,100.00
2019-02-10T00:35:45.777Z,100.00
2019-02-10T00:38:14.282Z,100.00
2019-02-10T00:40:42.931Z,100.00
2019-02-10T00:43:11.612Z,100.00
2019-02-10T00:45:40.190Z,100.00
2019-02-10T00:48:08.700Z,100.00
2019-02-10T00:50:37.385Z,100.00
2019-02-10T00:53:06.028Z,100.00
2019-02-10T00:55:34.692Z,100.00
2019-02-10T00:58:03.385Z,100.00
2019-02-10T01:00:32.022Z,100.00
2019-02-10T01:03:00.719Z,100.00
2019-02-10T01:05:29.265Z,100.00
2019-02-10T01:07:57.918Z,100.00
2019-02-10T01:10:27.329Z,100.00
2019-02-10T01:12:56.005Z,100.00
2019-02-10T01:15:24.642Z,100.00
2019-02-10T01:17:53.211Z,100.00
2019-02-10T01:20:21.949Z,100.00
2019-02-10T01:22:50.588Z,100.00
2019-02-10T01:25:19.212Z,100.00
2019-02-10T01:27:47.890Z,100.00
2019-02-10T01:30:16.541Z,100.00
2019-02-10T01:32:45.184Z,100.00
2019-02-10T01:35:13.962Z,100.00
2019-02-10T01:37:42.603Z,100.00
2019-02-10T01:40:11.839Z,100.00
2019-02-10T01:42:40.638Z,100.00
2019-02-10T01:45:11.559Z,100.00
2019-02-10T01:47:40.308Z,100.00
2019-02-10T01:50:11.048Z,100.00
2019-02-10T01:52:39.615Z,100.00
2019-02-10T01:55:13.127Z,100.00
2019-02-10T01:57:42.207Z,100.00
2019-02-10T02:00:18.278Z,100.00
2019-02-10T02:02:46.877Z,100.00
2019-02-10T02:05:15.841Z,100.00
2019-02-10T02:07:44.467Z,100.00
2019-02-10T02:10:14.880Z,100.00
2019-02-10T02:12:43.445Z,100.00
2019-02-10T02:15:16.201Z,100.00
2019-02-10T02:17:44.977Z,100.00
2019-02-10T02:20:14.317Z,100.00
2019-02-10T02:22:42.966Z,100.00
2019-02-10T02:27:46.844Z,100.00
2019-02-10T02:30:16.129Z,100.00
2019-02-10T02:32:44.768Z,100.00
2019-02-10T02:35:13.508Z,100.00
2019-02-10T02:37:42.229Z,100.00
2019-02-10T02:40:11.761Z,100.00
2019-02-10T02:42:40.593Z,100.00
2019-02-10T02:45:13.602Z,100.00
2019-02-10T02:47:42.178Z,100.00
2019-02-10T02:50:11.852Z,100.00
2019-02-10T02:52:40.614Z,100.00
2019-02-10T02:55:10.240Z,100.00
2019-02-10T02:57:38.885Z,100.00
2019-02-10T03:00:09.385Z,100.00
2019-02-10T03:02:37.887Z,100.00
2019-02-10T03:05:08.940Z,100.00
2019-02-10T03:07:37.607Z,100.00
2019-02-10T03:10:08.047Z,100.00
2019-02-10T03:12:36.789Z,100.00
2019-02-10T03:15:07.975Z,100.00
2019-02-10T03:17:36.622Z,100.00
2019-02-10T03:20:07.276Z,100.00
2019-02-10T03:22:35.857Z,100.00
2019-02-10T03:25:05.510Z,100.00
2019-02-10T03:27:34.143Z,100.00
2019-02-10T03:30:02.680Z,100.00
2019-02-10T03:32:31.241Z,100.00
2019-02-10T03:34:59.877Z,100.00
2019-02-10T03:37:28.546Z,100.00
2019-02-10T03:39:57.068Z,100.00
2019-02-10T03:42:25.806Z,100.00
2019-02-10T03:44:54.484Z,100.00
2019-02-10T03:47:23.149Z,100.00
2019-02-10T03:49:51.620Z,100.00
2019-02-10T03:52:20.493Z,100.00
2019-02-10T03:54:49.126Z,100.00
2019-02-10T03:57:17.763Z,100.00
2019-02-10T03:59:46.428Z,100.00
2019-02-10T04:02:14.915Z,100.00
2019-02-10T04:04:43.544Z,100.00
2019-02-10T04:07:12.417Z,100.00
2019-02-10T04:09:40.958Z,100.00
2019-02-10T04:12:09.446Z,100.00
2019-02-10T04:14:38.134Z,100.00
2019-02-10T04:17:06.693Z,100.00
2019-02-10T04:19:35.333Z,100.00
2019-02-10T04:22:04.211Z,100.00
2019-02-10T04:24:32.715Z,100.00
2019-02-10T04:27:01.222Z,100.00
2019-02-10T04:29:29.900Z,100.00
2019-02-10T04:31:58.541Z,100.00
2019-02-10T04:34:27.103Z,100.00
2019-02-10T04:36:55.700Z,100.00
2019-02-10T04:39:24.431Z,100.00
2019-02-10T04:41:53.060Z,100.00
2019-02-10T04:44:21.611Z,100.00
2019-02-10T04:46:50.113Z,100.00
2019-02-10T04:49:18.747Z,100.00
2019-02-10T04:51:47.433Z,100.00
2019-02-10T04:54:15.920Z,100.00
2019-02-10T04:56:44.567Z,100.00
2019-02-10T04:59:13.269Z,100.00
2019-02-10T05:01:41.763Z,100.00
2019-02-10T05:04:10.395Z,100.00
2019-02-10T05:06:39.087Z,100.00
2019-02-10T05:09:07.577Z,100.00
2019-02-10T05:11:36.100Z,100.00
2019-02-10T05:14:04.764Z,100.00
2019-02-10T05:16:33.418Z,100.00
2019-02-10T05:19:01.910Z,100.00
2019-02-10T05:21:30.454Z,100.00
2019-02-10T05:24:03.464Z,100.00
2019-02-10T05:26:29.470Z,100.00
2019-02-10T05:28:58.003Z,100.00
2019-02-10T05:31:26.519Z,100.00
2019-02-10T05:33:55.179Z,100.00
2019-02-10T05:36:26.604Z,100.00
2019-02-10T05:38:55.246Z,100.00
2019-02-10T05:41:23.894Z,100.00
2019-02-10T05:43:52.495Z,100.00
2019-02-10T05:46:20.993Z,100.00
2019-02-10T05:48:49.707Z,100.00
2019-02-10T05:51:18.389Z,100.00
2019-02-10T05:53:46.917Z,100.00
2019-02-10T05:56:15.407Z,100.00
2019-02-10T05:58:44.107Z,100.00
2019-02-10T06:01:49.326Z,100.00
2019-02-10T06:04:17.989Z,100.00
2019-02-10T06:06:46.485Z,99.75
2019-02-10T06:09:15.128Z,95.40
2019-02-10T06:11:43.791Z,91.54
2019-02-10T06:14:12.278Z,86.78
2019-02-10T06:16:40.773Z,82.77
2019-02-10T06:19:09.437Z,79.84
2019-02-10T06:21:38.080Z,78.37
2019-02-10T06:24:06.570Z,76.40
2019-02-10T06:26:35.107Z,73.51
2019-02-10T06:29:03.786Z,71.41
2019-02-10T06:31:32.414Z,70.28
2019-02-10T06:34:00.940Z,69.87
2019-02-10T06:36:29.435Z,67.05
2019-02-10T06:38:58.092Z,66.34
2019-02-10T06:41:26.750Z,64.20
2019-02-10T06:43:55.238Z,61.96
2019-02-10T06:46:23.737Z,60.24
2019-02-10T06:48:52.393Z,58.33
2019-02-10T06:51:21.024Z,58.08
2019-02-10T06:53:49.512Z,57.07
2019-02-10T06:56:18.178Z,56.24
2019-02-10T06:58:48.257Z,56.46
2019-02-10T07:01:33.567Z,55.90
2019-02-10T07:04:05.394Z,55.87
2019-02-10T07:06:34.026Z,54.58
2019-02-10T07:09:02.860Z,53.21
2019-02-10T07:11:31.357Z,52.74
2019-02-10T07:13:59.981Z,51.93
2019-02-10T07:16:37.595Z,51.30
2019-02-10T07:19:42.585Z,51.45
2019-02-10T07:22:43.164Z,50.93
2019-02-10T07:25:17.688Z,50.06
2019-02-10T07:28:04.521Z,49.40
2019-02-10T07:30:41.990Z,50.48
2019-02-10T07:33:16.940Z,50.09
2019-02-10T07:36:20.324Z,51.16
2019-02-10T07:38:51.919Z,50.37
2019-02-10T07:41:25.975Z,50.82
2019-02-10T07:44:12.805Z,52.65
2019-02-10T07:46:56.105Z,53.81
2019-02-10T07:49:47.254Z,53.30
2019-02-10T07:52:36.934Z,51.64
2019-02-10T07:55:43.573Z,51.97
2019-02-10T07:58:30.111Z,51.55
2019-02-10T08:01:17.859Z,51.36
2019-02-10T08:03:54.970Z,52.27
2019-02-10T08:06:26.514Z,52.30
2019-02-10T08:09:00.908Z,51.70
2019-02-10T08:11:32.438Z,50.82
2019-02-10T08:14:19.051Z,50.88
2019-02-10T08:17:08.372Z,52.54
2019-02-10T08:20:05.765Z,54.61
2019-02-10T08:22:53.784Z,54.83
2019-02-10T08:25:41.853Z,57.13
2019-02-10T08:28:17.150Z,57.27
2019-02-10T08:30:54.905Z,56.56
2019-02-10T08:33:32.450Z,57.40
2019-02-10T08:36:31.127Z,57.67
2019-02-10T08:39:28.168Z,57.03
2019-02-10T08:42:08.948Z,57.25
2019-02-10T08:45:07.553Z,58.54
2019-02-10T08:47:50.546Z,59.08
2019-02-10T08:50:46.062Z,59.11
2019-02-10T08:53:20.848Z,60.34
2019-02-10T08:55:49.467Z,59.65
2019-02-10T08:58:17.953Z,60.03
2019-02-10T09:00:46.561Z,60.07
2019-02-10T09:03:19.611Z,60.84
2019-02-10T09:05:45.419Z,60.57
2019-02-10T09:08:14.085Z,60.57
2019-02-10T09:10:42.710Z,60.80
2019-02-10T09:13:11.195Z,61.37
2019-02-10T09:15:39.722Z,62.07
2019-02-10T09:18:08.345Z,61.48
2019-02-10T09:20:36.841Z,62.05
2019-02-10T09:23:05.498Z,62.46
2019-02-10T09:25:34.121Z,62.65
2019-02-10T09:28:02.606Z,62.17
2019-02-10T09:30:31.213Z,62.64
2019-02-10T09:32:59.829Z,62.55
2019-02-10T09:35:28.456Z,63.53
2019-02-10T09:37:56.978Z,63.28
2019-02-10T09:40:25.502Z,62.75
2019-02-10T09:42:54.226Z,61.93
2019-02-10T09:45:22.946Z,61.58
2019-02-10T09:47:51.563Z,61.90
2019-02-10T09:50:20.689Z,61.37
2019-02-10T09:52:49.222Z,61.22
2019-02-10T09:55:17.717Z,60.70
2019-02-10T09:57:46.343Z,60.86
2019-02-10T10:00:15.603Z,59.64
2019-02-10T10:02:44.219Z,59.42
2019-02-10T10:05:13.940Z,59.50
2019-02-10T10:07:48.331Z,59.17
2019-02-10T10:10:16.952Z,58.55
2019-02-10T10:12:45.445Z,58.04
2019-02-10T10:15:16.112Z,58.42
2019-02-10T10:17:44.842Z,57.66
2019-02-10T10:20:16.317Z,57.74
2019-02-10T10:22:45.634Z,56.07
2019-02-10T10:25:14.365Z,55.90
2019-02-10T10:27:42.855Z,56.19
2019-02-10T10:30:14.144Z,56.20
2019-02-10T10:32:42.840Z,55.82
2019-02-10T10:35:11.463Z,56.17
2019-02-10T10:37:40.049Z,54.97
2019-02-10T10:40:30.019Z,54.12
2019-02-10T10:42:58.704Z,52.00
2019-02-10T10:45:27.336Z,49.30
2019-02-10T10:47:55.818Z,48.72
2019-02-10T10:50:24.413Z,48.30
2019-02-10T10:52:53.025Z,47.95
2019-02-10T10:55:21.641Z,47.02
2019-02-10T10:57:50.236Z,47.50
2019-02-10T11:00:18.919Z,47.48
2019-02-10T11:02:47.548Z,46.77
2019-02-10T11:05:16.498Z,46.30
2019-02-10T11:07:45.150Z,46.53
2019-02-10T11:10:14.154Z,45.74
2019-02-10T11:15:18.282Z,46.01
2019-02-10T11:17:46.900Z,45.92
2019-02-10T11:20:15.530Z,44.63
2019-02-10T11:22:44.056Z,44.58
2019-02-10T11:25:12.910Z,44.40
2019-02-10T11:27:41.530Z,45.13
2019-02-10T11:30:13.249Z,44.90
2019-02-10T11:32:41.809Z,44.39
2019-02-10T11:35:10.429Z,43.29
2019-02-10T11:37:39.105Z,42.86
2019-02-10T11:40:10.247Z,43.32
2019-02-10T11:42:38.865Z,43.24
2019-02-10T11:45:13.053Z,43.62
2019-02-10T11:47:41.673Z,43.21
2019-02-10T11:50:12.355Z,42.91
2019-02-10T11:52:41.021Z,42.67
2019-02-10T11:55:10.636Z,42.34
2019-02-10T11:57:39.256Z,42.34
2019-02-10T12:00:16.928Z,42.92
2019-02-10T12:02:45.560Z,41.88
2019-02-10T12:05:14.226Z,41.61
2019-02-10T12:07:42.871Z,41.98
2019-02-10T12:10:14.666Z,41.20
2019-02-10T12:12:43.149Z,41.39
2019-02-10T12:15:13.951Z,41.04
2019-02-10T12:17:42.566Z,41.16
2019-02-10T12:20:14.901Z,41.31
2019-02-10T12:22:49.949Z,40.45
2019-02-10T12:25:13.928Z,39.74
2019-02-10T12:27:42.529Z,39.65
2019-02-10T12:30:15.981Z,39.10
2019-02-10T12:32:44.597Z,39.63
2019-02-10T12:35:13.320Z,39.51
2019-02-10T12:37:41.906Z,40.10
2019-02-10T12:40:11.833Z,39.94
2019-02-10T12:42:40.452Z,40.27
2019-02-10T12:45:11.112Z,40.55
2019-02-10T12:47:39.747Z,40.13
2019-02-10T12:50:11.312Z,39.88
2019-02-10T12:52:39.968Z,39.64
2019-02-10T12:55:09.898Z,40.46
2019-02-10T12:57:38.510Z,41.50
2019-02-10T13:00:10.231Z,41.86
2019-02-10T13:02:38.720Z,41.88
2019-02-10T13:05:07.646Z,42.18
2019-02-10T13:07:36.175Z,41.75
2019-02-10T13:10:08.390Z,41.40
2019-02-10T13:12:37.156Z,40.35
2019-02-10T13:15:07.416Z,40.47
2019-02-10T13:17:35.914Z,40.72
2019-02-10T13:20:06.579Z,40.59
2019-02-10T13:22:35.243Z,40.74
2019-02-10T13:25:04.685Z,40.86
2019-02-10T13:27:33.255Z,40.61
2019-02-10T13:30:01.803Z,40.37
2019-02-10T13:32:36.350Z,40.68
2019-02-10T13:35:05.282Z,39.84
2019-02-10T13:37:33.820Z,39.43
2019-02-10T13:40:02.299Z,39.20
2019-02-10T13:42:30.916Z,39.37
2019-02-10T13:44:59.511Z,39.25
2019-02-10T13:47:28.065Z,39.49
2019-02-10T13:49:56.697Z,39.65
2019-02-10T13:52:25.522Z,39.86
2019-02-10T13:54:54.007Z,39.60
2019-02-10T13:57:22.619Z,39.37
2019-02-10T13:59:51.293Z,39.82
2019-02-10T14:02:19.772Z,39.72
2019-02-10T14:04:48.272Z,40.41
2019-02-10T14:07:16.925Z,39.99
2019-02-10T14:09:45.545Z,39.75
2019-02-10T14:12:14.131Z,39.58
2019-02-10T14:14:42.686Z,39.87
2019-02-10T14:17:11.299Z,39.91
2019-02-10T14:19:39.925Z,39.80
2019-02-10T14:22:08.629Z,40.16
2019-02-10T14:24:37.259Z,39.82
2019-02-10T14:27:05.732Z,39.95
2019-02-10T14:29:34.373Z,40.20
2019-02-10T14:32:03.008Z,40.40
2019-02-10T14:34:31.628Z,40.19
2019-02-10T14:37:00.157Z,40.44
2019-02-10T14:39:28.645Z,40.93
2019-02-10T14:41:57.278Z,40.81
2019-02-10T14:44:25.932Z,41.17
2019-02-10T14:46:54.483Z,40.83
2019-02-10T14:49:23.552Z,40.84
2019-02-10T14:51:52.223Z,40.89
2019-02-10T14:54:26.818Z,40.99
2019-02-10T14:56:55.302Z,40.95
2019-02-10T14:59:23.839Z,41.47
2019-02-10T15:01:52.467Z,41.60
2019-02-10T15:04:20.948Z,41.60
2019-02-10T15:06:49.628Z,41.49
2019-02-10T15:09:18.320Z,41.75
2019-02-10T15:11:46.844Z,42.54
2019-02-10T15:14:15.369Z,42.85
2019-02-10T15:16:43.989Z,42.96
2019-02-10T15:19:12.607Z,43.57
2019-02-10T15:21:42.411Z,43.72
2019-02-10T15:24:11.102Z,44.28
2019-02-10T15:26:39.729Z,44.47
2019-02-10T15:29:08.410Z,44.88
2019-02-10T15:31:36.919Z,44.54
2019-02-10T15:34:05.455Z,45.05
2019-02-10T15:36:34.393Z,45.24
2019-02-10T15:39:03.117Z,45.47
2019-02-10T15:41:31.632Z,45.48
2019-02-10T15:44:00.553Z,45.99
2019-02-10T15:46:29.116Z,46.44
2019-02-10T15:48:57.617Z,46.62
2019-02-10T15:51:35.551Z,47.32
2019-02-10T15:53:56.858Z,47.66
2019-02-10T15:56:25.368Z,48.29
2019-02-10T15:58:53.899Z,48.96
2019-02-10T16:01:22.646Z,49.30
2019-02-10T16:03:51.312Z,49.52
2019-02-10T16:06:19.840Z,51.80
2019-02-10T16:08:48.348Z,50.56
2019-02-10T16:11:17.053Z,51.87
2019-02-10T16:13:45.906Z,50.84
2019-02-10T16:16:20.390Z,51.34
2019-02-10T16:18:48.961Z,51.50
2019-02-10T16:21:17.627Z,51.03
2019-02-10T16:23:46.117Z,51.76
2019-02-10T16:26:14.758Z,52.24
2019-02-10T16:28:43.463Z,52.26
2019-02-10T16:31:11.961Z,52.62
2019-02-10T16:33:40.566Z,52.44
2019-02-10T16:36:09.228Z,52.86
2019-02-10T16:38:37.815Z,53.16
2019-02-10T16:41:06.844Z,53.49
2019-02-10T16:43:35.516Z,53.83
2019-02-10T16:46:04.142Z,53.85
2019-02-10T16:48:32.787Z,54.10
2019-02-10T16:51:01.391Z,54.46
2019-02-10T16:53:33.045Z,54.84
2019-02-10T16:56:01.665Z,55.20
2019-02-10T16:58:30.332Z,55.66
2019-02-10T17:00:58.830Z,55.93
2019-02-10T17:03:27.312Z,56.40
2019-02-10T17:05:55.983Z,56.39
2019-02-10T17:08:24.722Z,56.52
2019-02-10T17:10:53.221Z,55.95
2019-02-10T17:13:22.015Z,55.70
2019-02-10T17:15:50.644Z,56.87
2019-02-10T17:18:19.265Z,57.23
2019-02-10T17:20:47.810Z,57.34
2019-02-10T17:23:16.293Z,57.27
2019-02-10T17:25:44.922Z,57.77
2019-02-10T17:28:13.588Z,58.15
2019-02-10T17:30:42.168Z,58.85
2019-02-10T17:33:10.661Z,59.46
2019-02-10T17:35:39.334Z,59.12
2019-02-10T17:38:07.972Z,59.17
2019-02-10T17:40:39.370Z,60.11
2019-02-10T17:43:08.047Z,59.76
2019-02-10T17:45:36.540Z,60.11
2019-02-10T17:48:05.267Z,60.74
2019-02-10T17:50:33.950Z,61.55
2019-02-10T17:53:02.568Z,61.23
2019-02-10T17:55:31.062Z,60.59
2019-02-10T17:57:59.592Z,60.92
2019-02-10T18:00:29.863Z,61.56
2019-02-10T18:02:58.498Z,62.44
2019-02-10T18:05:27.174Z,62.79
2019-02-10T18:07:55.669Z,63.08
2019-02-10T18:10:24.306Z,62.79
2019-02-10T18:12:52.973Z,62.08
2019-02-10T18:15:32.027Z,62.63
2019-02-10T18:18:18.132Z,63.05
2019-02-10T18:21:07.476Z,62.95
2019-02-10T18:23:43.820Z,63.76
2019-02-10T18:26:30.255Z,64.78
2019-02-10T18:29:16.745Z,65.40
2019-02-10T18:31:49.509Z,63.66
2019-02-10T18:34:19.630Z,62.92
2019-02-10T18:37:01.768Z,63.10
2019-02-10T18:39:38.197Z,64.57
2019-02-10T18:42:08.364Z,64.23
2019-02-10T18:44:41.272Z,65.28
2019-02-10T18:47:26.868Z,65.68
2019-02-10T18:50:00.234Z,65.37
2019-02-10T18:52:30.382Z,64.71
2019-02-10T18:55:00.553Z,63.99
2019-02-10T18:57:47.275Z,63.92
2019-02-10T19:00:29.580Z,64.07
2019-02-10T19:02:59.704Z,65.32
2019-02-10T19:05:32.703Z,64.72
2019-02-10T19:08:02.957Z,64.71
2019-02-10T19:10:36.064Z,65.93
2019-02-10T19:13:06.331Z,66.83
2019-02-10T19:15:36.698Z,67.19
2019-02-10T19:18:16.203Z,67.26
2019-02-10T19:20:51.849Z,67.99
2019-02-10T19:23:34.040Z,68.15
2019-02-10T19:26:04.360Z,66.67
2019-02-10T19:28:40.275Z,66.51
2019-02-10T19:31:26.789Z,66.82
2019-02-10T19:33:59.725Z,66.87
2019-02-10T19:36:30.032Z,67.70
2019-02-10T19:39:16.422Z,68.74
2019-02-10T19:42:03.175Z,67.57
2019-02-10T19:44:49.704Z,67.42
2019-02-10T19:47:22.586Z,67.11
2019-02-10T19:50:09.575Z,66.18
2019-02-10T19:52:51.765Z,65.89
2019-02-10T19:55:27.796Z,66.79
2019-02-10T19:58:03.722Z,67.27
2019-02-10T20:00:42.971Z,67.03
2019-02-10T20:03:19.020Z,66.78
2019-02-10T20:05:52.177Z,67.20
2019-02-10T20:08:25.157Z,67.15
2019-02-10T20:11:01.368Z,67.46
2019-02-10T20:13:37.811Z,67.49
2019-02-10T20:16:08.112Z,68.17
2019-02-10T20:18:38.310Z,68.62
2019-02-10T20:21:08.590Z,69.08
2019-02-10T20:23:41.722Z,69.39
2019-02-10T20:26:17.611Z,69.78
2019-02-10T20:28:56.736Z,70.01
2019-02-10T20:31:26.871Z,70.21
2019-02-10T20:34:02.614Z,71.16
2019-02-10T20:36:35.897Z,71.51
2019-02-10T20:39:09.826Z,72.01
2019-02-10T20:41:40.018Z,71.43
2019-02-10T20:44:18.684Z,71.64
2019-02-10T20:47:41.884Z,72.29
2019-02-10T20:50:21.518Z,72.17
2019-02-10T20:53:03.658Z,73.16
2019-02-10T20:55:36.552Z,73.77
2019-02-10T20:58:23.569Z,74.20
2019-02-10T21:00:56.868Z,74.30
2019-02-10T21:03:32.541Z,74.59
2019-02-10T21:06:02.701Z,75.40
2019-02-10T21:08:35.838Z,75.43
2019-02-10T21:11:12.009Z,75.82
2019-02-10T21:14:00.852Z,76.03
2019-02-10T21:16:47.331Z,75.79
2019-02-10T21:19:32.245Z,76.65
2019-02-10T21:22:11.849Z,76.38
2019-02-10T21:27:57.128Z,76.90
2019-02-10T21:30:42.324Z,77.46
2019-02-10T21:33:15.757Z,78.07
2019-02-10T21:35:46.033Z,78.62
2019-02-10T21:38:25.306Z,78.87
2019-02-10T21:40:55.431Z,78.96
2019-02-10T21:43:37.211Z,79.11
2019-02-10T21:46:13.287Z,79.43
2019-02-10T21:48:43.813Z,79.88
2019-02-10T21:51:12.369Z,80.71
2019-02-10T21:53:40.991Z,81.63
2019-02-10T21:56:09.657Z,82.37
2019-02-10T21:58:38.159Z,83.09
2019-02-10T22:01:06.800Z,84.01
2019-02-10T22:03:35.474Z,85.27
2019-02-10T22:06:04.031Z,85.33
2019-02-10T22:08:32.599Z,85.08
2019-02-10T22:11:01.256Z,86.33
2019-02-10T22:13:29.882Z,86.29
2019-02-10T22:15:58.384Z,86.98
2019-02-10T22:18:26.925Z,86.85
2019-02-10T22:20:55.570Z,86.79
2019-02-10T22:23:24.223Z,87.12
2019-02-10T22:25:52.966Z,87.93
2019-02-10T22:28:21.454Z,88.07
2019-02-10T22:30:50.091Z,88.61
2019-02-10T22:33:18.769Z,89.56
2019-02-10T22:35:47.351Z,89.84
2019-02-10T22:38:15.841Z,89.92
2019-02-10T22:40:44.499Z,89.94
2019-02-10T22:43:13.134Z,90.18
2019-02-10T22:45:41.637Z,90.18
2019-02-10T22:48:10.422Z,90.34
2019-02-10T22:50:39.054Z,91.28
2019-02-10T22:53:07.677Z,91.21
2019-02-10T22:55:36.239Z,91.95
2019-02-10T22:58:04.731Z,92.84
2019-02-10T23:00:43.962Z,93.02
2019-02-10T23:03:12.776Z,92.87
2019-02-10T23:05:41.429Z,93.45
2019-02-10T23:08:09.959Z,93.03
2019-02-10T23:10:38.577Z,92.66
2019-02-10T23:13:07.129Z,92.55
2019-02-10T23:15:36.003Z,93.14
2019-02-10T23:18:04.634Z,93.70
2019-02-10T23:20:33.138Z,94.23
2019-02-10T23:23:02.699Z,94.49
2019-02-10T23:25:31.334Z,93.78
2019-02-10T23:27:59.957Z,93.10
2019-02-10T23:30:28.813Z,92.63
2019-02-10T23:32:57.298Z,93.75
2019-02-10T23:35:28.666Z,94.39
2019-02-10T23:37:57.542Z,94.63
2019-02-10T23:40:26.033Z,95.15
2019-02-10T23:43:01.893Z,95.38
2019-02-10T23:45:24.920Z,95.23
2019-02-10T23:47:53.556Z,94.95
2019-02-10T23:50:22.054Z,95.20
2019-02-10T23:52:50.736Z,94.84
2019-02-10T23:55:19.224Z,95.23
2019-02-10T23:57:47.726Z,95.60
